createdAt,value
2024-04-23T00:00:58.010Z,92321.00
2024-04-23T00:01:58.027Z,92321.00
2024-04-23T00:02:58.040Z,92320.00
2024-04-23T00:03:58.079Z,92320.00
2024-04-23T00:04:58.104Z,92319.00
2024-04-23T00:05:58.118Z,92319.00
2024-04-23T00:06:58.137Z,92319.00
2024-04-23T00:07:58.255Z,92318.00
2024-04-23T00:08:58.182Z,92318.00
2024-04-23T00:09:58.216Z,92315.00
2024-04-23T00:10:58.278Z,92314.00
2024-04-23T00:11:58.275Z,92314.00
2024-04-23T00:12:58.293Z,92312.00
2024-04-23T00:13:58.397Z,92311.00
2024-04-23T00:14:58.353Z,92310.00
2024-04-23T00:15:58.373Z,92308.00
2024-04-23T00:16:58.460Z,92311.00
2024-04-23T00:17:58.558Z,92309.00
2024-04-23T00:18:58.459Z,92309.00
2024-04-23T00:19:58.590Z,92310.00
2024-04-23T00:20:58.503Z,92311.00
2024-04-23T00:21:58.542Z,92312.00
2024-04-23T00:22:58.647Z,92314.00
2024-04-23T00:23:58.587Z,92312.00
2024-04-23T00:24:59.570Z,92312.00
2024-04-23T00:25:58.703Z,92312.00
2024-04-23T00:26:58.683Z,92310.00
2024-04-23T00:27:59.133Z,92311.00
2024-04-23T00:28:58.750Z,92308.00
2024-04-23T00:29:58.730Z,92306.00
2024-04-23T00:30:58.756Z,92306.00
2024-04-23T00:31:59.023Z,92304.00
2024-04-23T00:32:58.927Z,92306.00
2024-04-23T00:33:58.828Z,92306.00
2024-04-23T00:34:58.964Z,92307.00
2024-04-23T00:35:58.893Z,92307.00
2024-04-23T00:36:58.978Z,92306.00
2024-04-23T00:37:58.950Z,92305.00
2024-04-23T00:38:58.959Z,92304.00
2024-04-23T00:39:58.991Z,92305.00
2024-04-23T00:40:59.037Z,92303.00
2024-04-23T00:41:59.054Z,92301.00
2024-04-23T00:42:59.074Z,92301.00
2024-04-23T00:43:59.183Z,92299.00
2024-04-23T00:44:59.148Z,92298.00
2024-04-23T00:45:59.180Z,92297.00
2024-04-23T00:46:59.367Z,92293.00
2024-04-23T00:47:59.359Z,92291.00
2024-04-23T00:48:59.261Z,92286.00
2024-04-23T00:49:59.384Z,92285.00
2024-04-23T00:50:59.342Z,92282.00
2024-04-23T00:51:59.362Z,92281.00
2024-04-23T00:52:59.432Z,92280.00
2024-04-23T00:53:59.420Z,92279.00
2024-04-23T00:54:59.454Z,92276.00
2024-04-23T00:55:59.554Z,92275.00
2024-04-23T00:56:59.519Z,92273.00
2024-04-23T00:57:59.538Z,92270.00
2024-04-23T00:58:59.655Z,92269.00
2024-04-23T00:59:59.609Z,92266.00
2024-04-23T01:00:59.662Z,92265.00
2024-04-23T01:01:59.726Z,92265.00
2024-04-23T01:02:59.768Z,92262.00
2024-04-23T01:03:59.767Z,92260.00
2024-04-23T01:04:59.848Z,92257.00
2024-04-23T01:06:00.573Z,92255.00
2024-04-23T01:06:59.810Z,92252.00
2024-04-23T01:07:59.858Z,92251.00
2024-04-23T01:08:59.870Z,92249.00
2024-04-23T01:09:59.905Z,92249.00
2024-04-23T01:10:59.967Z,92249.00
2024-04-23T01:11:59.987Z,92249.00
2024-04-23T01:13:00.005Z,92252.00
2024-04-23T01:14:00.123Z,92252.00
2024-04-23T01:15:00.055Z,92253.00
2024-04-23T01:16:00.093Z,92254.00
2024-04-23T01:17:00.186Z,92253.00
2024-04-23T01:18:00.684Z,92255.00
2024-04-23T01:19:00.158Z,92253.00
2024-04-23T01:20:00.620Z,92253.00
2024-04-23T01:21:00.204Z,92254.00
2024-04-23T01:22:00.212Z,92254.00
2024-04-23T01:23:00.388Z,92253.00
2024-04-23T01:24:00.265Z,92254.00
2024-04-23T01:25:00.302Z,92253.00
2024-04-23T01:26:00.423Z,92255.00
2024-04-23T01:27:00.350Z,92256.00
2024-04-23T01:28:00.609Z,92255.00
2024-04-23T01:29:00.500Z,92257.00
2024-04-23T01:30:00.519Z,92257.00
2024-04-23T01:31:00.520Z,92256.00
2024-04-23T01:32:00.608Z,92257.00
2024-04-23T01:33:00.622Z,92255.00
2024-04-23T01:34:00.498Z,92256.00
2024-04-23T01:35:00.550Z,92255.00
2024-04-23T01:36:00.542Z,92254.00
2024-04-23T01:37:00.541Z,92254.00
2024-04-23T01:38:00.675Z,92252.00
2024-04-23T01:39:00.604Z,92253.00
2024-04-23T01:40:00.598Z,92251.00
2024-04-23T01:41:00.660Z,92252.00
2024-04-23T01:42:00.698Z,92252.00
2024-04-23T01:43:00.697Z,92252.00
2024-04-23T01:44:00.691Z,92252.00
2024-04-23T01:45:00.650Z,92250.00
2024-04-23T01:46:00.718Z,92250.00
2024-04-23T01:47:00.970Z,92250.00
2024-04-23T01:48:00.853Z,92249.00
2024-04-23T01:49:00.699Z,92250.00
2024-04-23T01:50:00.783Z,92250.00
2024-04-23T01:51:01.585Z,92248.00
2024-04-23T01:52:00.724Z,92247.00
2024-04-23T01:53:00.737Z,92249.00
2024-04-23T01:54:00.742Z,92246.00
2024-04-23T01:55:00.753Z,92243.00
2024-04-23T01:56:00.784Z,92243.00
2024-04-23T01:57:00.847Z,92241.00
2024-04-23T01:58:00.767Z,92242.00
2024-04-23T01:59:03.652Z,92241.00
2024-04-23T02:00:00.797Z,92242.00
2024-04-23T02:01:00.834Z,92241.00
2024-04-23T02:02:00.906Z,92243.00
2024-04-23T02:03:00.914Z,92239.00
2024-04-23T02:04:00.797Z,92239.00
2024-04-23T02:05:00.871Z,92238.00
2024-04-23T02:06:00.792Z,92235.00
2024-04-23T02:07:00.798Z,92234.00
2024-04-23T02:08:00.886Z,92235.00
2024-04-23T02:09:03.762Z,92237.00
2024-04-23T02:10:00.804Z,92236.00
2024-04-23T02:11:00.856Z,92238.00
2024-04-23T02:12:00.808Z,92238.00
2024-04-23T02:13:00.835Z,92237.00
2024-04-23T02:14:00.842Z,92235.00
2024-04-23T02:15:00.800Z,92235.00
2024-04-23T02:16:00.806Z,92234.00
2024-04-23T02:17:01.290Z,92234.00
2024-04-23T02:18:00.896Z,92237.00
2024-04-23T02:19:00.799Z,92236.00
2024-04-23T02:20:00.911Z,92236.00
2024-04-23T02:21:00.790Z,92235.00
2024-04-23T02:22:00.805Z,92234.00
2024-04-23T02:23:00.910Z,92235.00
2024-04-23T02:24:00.805Z,92233.00
2024-04-23T02:25:00.811Z,92233.00
2024-04-23T02:26:00.936Z,92230.00
2024-04-23T02:27:00.806Z,92229.00
2024-04-23T02:28:00.884Z,92230.00
2024-04-23T02:29:00.818Z,92228.00
2024-04-23T02:30:00.882Z,92227.00
2024-04-23T02:31:00.810Z,92226.00
2024-04-23T02:32:00.849Z,92225.00
2024-04-23T02:33:00.874Z,92224.00
2024-04-23T02:34:00.810Z,92224.00
2024-04-23T02:35:00.843Z,92221.00
2024-04-23T02:36:00.821Z,92224.00
2024-04-23T02:37:00.808Z,92225.00
2024-04-23T02:38:00.850Z,92224.00
2024-04-23T02:39:00.823Z,92222.00
2024-04-23T02:40:03.746Z,92221.00
2024-04-23T02:41:00.898Z,92223.00
2024-04-23T02:42:00.872Z,92224.00
2024-04-23T02:43:00.813Z,92223.00
2024-04-23T02:44:00.849Z,92224.00
2024-04-23T02:45:00.806Z,92223.00
2024-04-23T02:46:00.820Z,92223.00
2024-04-23T02:47:01.681Z,92225.00
2024-04-23T02:48:00.936Z,92223.00
2024-04-23T02:49:00.809Z,92225.00
2024-04-23T02:50:01.108Z,92224.00
2024-04-23T02:51:00.818Z,92224.00
2024-04-23T02:52:00.834Z,92224.00
2024-04-23T02:53:00.915Z,92221.00
2024-04-23T02:54:00.947Z,92219.00
2024-04-23T02:55:00.999Z,92217.00
2024-04-23T02:56:01.108Z,92215.00
2024-04-23T02:57:01.128Z,92214.00
2024-04-23T02:58:01.219Z,92211.00
2024-04-23T02:59:01.305Z,92211.00
2024-04-23T03:00:01.350Z,92211.00
2024-04-23T03:01:01.417Z,92210.00
2024-04-23T03:02:01.582Z,92208.00
2024-04-23T03:03:01.602Z,92210.00
2024-04-23T03:04:01.607Z,92208.00
2024-04-23T03:05:01.767Z,92209.00
2024-04-23T03:06:01.735Z,92208.00
2024-04-23T03:07:01.820Z,92208.00
2024-04-23T03:08:02.705Z,92208.00
2024-04-23T03:09:01.934Z,92207.00
2024-04-23T03:10:02.164Z,92204.00
2024-04-23T03:11:02.259Z,92203.00
2024-04-23T03:12:02.151Z,92202.00
2024-04-23T03:13:02.213Z,92202.00
2024-04-23T03:14:02.343Z,92201.00
2024-04-23T03:15:02.318Z,92202.00
2024-04-23T03:16:04.115Z,92201.00
2024-04-23T03:17:02.464Z,92201.00
2024-04-23T03:18:02.488Z,92199.00
2024-04-23T03:19:02.409Z,92201.00
2024-04-23T03:20:02.460Z,92198.00
2024-04-23T03:21:02.397Z,92200.00
2024-04-23T03:22:02.398Z,92201.00
2024-04-23T03:23:02.469Z,92200.00
2024-04-23T03:24:02.392Z,92200.00
2024-04-23T03:25:02.473Z,92200.00
2024-04-23T03:26:02.498Z,92198.00
2024-04-23T03:27:02.408Z,92197.00
2024-04-23T03:28:02.395Z,92194.00
2024-04-23T03:29:02.492Z,92193.00
2024-04-23T03:30:02.392Z,92192.00
2024-04-23T03:31:02.402Z,92192.00
2024-04-23T03:32:02.848Z,92192.00
2024-04-23T03:33:02.498Z,92194.00
2024-04-23T03:34:02.406Z,92194.00
2024-04-23T03:35:02.548Z,92193.00
2024-04-23T03:36:02.401Z,92194.00
2024-04-23T03:37:02.391Z,92193.00
2024-04-23T03:38:02.537Z,92194.00
2024-04-23T03:39:02.388Z,92194.00
2024-04-23T03:40:02.392Z,92191.00
2024-04-23T03:41:02.538Z,92191.00
2024-04-23T03:42:02.431Z,92194.00
2024-04-23T03:43:02.404Z,92190.00
2024-04-23T03:44:02.637Z,92189.00
2024-04-23T03:45:02.547Z,92186.00
2024-04-23T03:46:02.620Z,92185.00
2024-04-23T03:47:02.755Z,92182.00
2024-04-23T03:48:02.804Z,92184.00
2024-04-23T03:49:02.820Z,92182.00
2024-04-23T03:50:03.002Z,92182.00
2024-04-23T03:51:02.934Z,92183.00
2024-04-23T03:52:03.001Z,92184.00
2024-04-23T03:53:03.714Z,92183.00
2024-04-23T03:54:03.119Z,92184.00
2024-04-23T03:55:03.190Z,92184.00
2024-04-23T03:56:03.381Z,92183.00
2024-04-23T03:57:03.351Z,92183.00
2024-04-23T03:58:03.389Z,92186.00
2024-04-23T03:59:03.477Z,92185.00
2024-04-23T04:00:03.511Z,92188.00
2024-04-23T04:01:03.618Z,92187.00
2024-04-23T04:02:03.735Z,92186.00
2024-04-23T04:03:03.725Z,92184.00
2024-04-23T04:04:03.859Z,92186.00
2024-04-23T04:05:03.877Z,92184.00
2024-04-23T04:06:03.908Z,92185.00
2024-04-23T04:07:03.966Z,92187.00
2024-04-23T04:08:04.135Z,92186.00
2024-04-23T04:09:04.136Z,92186.00
2024-04-23T04:10:04.171Z,92186.00
2024-04-23T04:11:04.286Z,92187.00
2024-04-23T04:12:04.301Z,92187.00
2024-04-23T04:13:13.210Z,92187.00
2024-04-23T04:14:05.530Z,92184.00
2024-04-23T04:15:04.375Z,92185.00
2024-04-23T04:16:04.394Z,92183.00
2024-04-23T04:17:04.460Z,92183.00
2024-04-23T04:18:04.468Z,92182.00
2024-04-23T04:19:04.426Z,92180.00
2024-04-23T04:20:04.495Z,92182.00
2024-04-23T04:21:04.375Z,92182.00
2024-04-23T04:22:04.451Z,92180.00
2024-04-23T04:23:11.735Z,92179.00
2024-04-23T04:24:11.688Z,92181.00
2024-04-23T04:25:11.724Z,92180.00
2024-04-23T04:26:11.745Z,92181.00
2024-04-23T04:27:11.721Z,92181.00
2024-04-23T04:28:11.760Z,92183.00
2024-04-23T04:29:11.747Z,92184.00
2024-04-23T04:30:11.798Z,92183.00
2024-04-23T04:31:19.053Z,92183.00
2024-04-23T04:32:19.177Z,92181.00
2024-04-23T04:33:19.205Z,92180.00
2024-04-23T04:34:21.768Z,92180.00
2024-04-23T04:35:19.076Z,92181.00
2024-04-23T04:36:19.079Z,92180.00
2024-04-23T04:37:19.091Z,92180.00
2024-04-23T04:38:19.071Z,92180.00
2024-04-23T04:39:19.086Z,92181.00
2024-04-23T04:40:19.101Z,92181.00
2024-04-23T04:41:19.095Z,92183.00
2024-04-23T04:42:19.080Z,92181.00
2024-04-23T04:43:19.084Z,92181.00
2024-04-23T04:44:19.074Z,92182.00
2024-04-23T04:45:19.637Z,92182.00
2024-04-23T04:46:19.631Z,92180.00
2024-04-23T04:47:19.154Z,92180.00
2024-04-23T04:48:19.133Z,92178.00
2024-04-23T04:49:19.082Z,92180.00
2024-04-23T04:50:19.267Z,92178.00
2024-04-23T04:51:19.089Z,92176.00
2024-04-23T04:52:19.114Z,92177.00
2024-04-23T04:53:19.145Z,92176.00
2024-04-23T04:54:19.162Z,92175.00
2024-04-23T04:55:19.115Z,92176.00
2024-04-23T04:56:19.117Z,92177.00
2024-04-23T04:57:19.095Z,92177.00
2024-04-23T04:58:19.117Z,92179.00
2024-04-23T04:59:19.128Z,92177.00
2024-04-23T05:00:19.119Z,92178.00
2024-04-23T05:01:19.118Z,92177.00
2024-04-23T05:02:19.147Z,92177.00
2024-04-23T05:03:19.114Z,92177.00
2024-04-23T05:04:19.169Z,92175.00
2024-04-23T05:05:19.131Z,92178.00
2024-04-23T05:06:19.154Z,92177.00
2024-04-23T05:07:19.191Z,92177.00
2024-04-23T05:08:19.125Z,92176.00
2024-04-23T05:09:19.123Z,92177.00
2024-04-23T05:10:19.118Z,92177.00
2024-04-23T05:11:19.131Z,92173.00
2024-04-23T05:12:19.164Z,92175.00
2024-04-23T05:13:19.195Z,92173.00
2024-04-23T05:14:19.124Z,92177.00
2024-04-23T05:15:19.195Z,92178.00
2024-04-23T05:16:19.279Z,92179.00
2024-04-23T05:17:19.400Z,92178.00
2024-04-23T05:18:19.417Z,92183.00
2024-04-23T05:19:19.437Z,92182.00
2024-04-23T05:20:19.499Z,92182.00
2024-04-23T05:21:19.583Z,92185.00
2024-04-23T05:22:19.610Z,92179.00
2024-04-23T05:23:19.690Z,92185.00
2024-04-23T05:24:19.741Z,92184.00
2024-04-23T05:25:19.818Z,92180.00
2024-04-23T05:26:19.894Z,92177.00
2024-04-23T05:27:19.937Z,92176.00
2024-04-23T05:28:20.011Z,92176.00
2024-04-23T05:29:20.070Z,92175.00
2024-04-23T05:30:20.132Z,92177.00
2024-04-23T05:31:20.174Z,92174.00
2024-04-23T05:32:20.708Z,92175.00
2024-04-23T05:33:20.317Z,92172.00
2024-04-23T05:34:20.272Z,92175.00
2024-04-23T05:35:20.279Z,92175.00
2024-04-23T05:36:20.313Z,92175.00
2024-04-23T05:37:20.362Z,92176.00
2024-04-23T05:38:20.411Z,92176.00
2024-04-23T05:39:20.379Z,92177.00
2024-04-23T05:40:20.380Z,92179.00
2024-04-23T05:41:20.417Z,92181.00
2024-04-23T05:42:20.488Z,92183.00
2024-04-23T05:43:20.541Z,92183.00
2024-04-23T05:44:23.368Z,92184.00
2024-04-23T05:45:20.639Z,92183.00
2024-04-23T05:46:20.601Z,92181.00
2024-04-23T05:47:20.690Z,92177.00
2024-04-23T05:48:20.697Z,92176.00
2024-04-23T05:49:20.589Z,92174.00
2024-04-23T05:50:26.112Z,92171.00
2024-04-23T05:51:21.604Z,92173.00
2024-04-23T05:52:29.519Z,92174.00
2024-04-23T05:53:21.661Z,92177.00
2024-04-23T05:54:20.602Z,92177.00
2024-04-23T05:55:20.621Z,92178.00
2024-04-23T05:56:20.626Z,92179.00
2024-04-23T05:57:20.724Z,92179.00
2024-04-23T05:58:20.606Z,92179.00
2024-04-23T05:59:20.623Z,92182.00
2024-04-23T06:00:21.152Z,92179.00
2024-04-23T06:01:20.706Z,92179.00
2024-04-23T06:02:20.630Z,92183.00
2024-04-23T06:03:20.700Z,92184.00
2024-04-23T06:04:20.643Z,92181.00
2024-04-23T06:05:20.627Z,92181.00
2024-04-23T06:06:20.692Z,92181.00
2024-04-23T06:07:20.626Z,92183.00
2024-04-23T06:08:20.718Z,92183.00
2024-04-23T06:09:20.628Z,92182.00
2024-04-23T06:10:20.641Z,92184.00
2024-04-23T06:11:20.693Z,92181.00
2024-04-23T06:12:20.673Z,92182.00
2024-04-23T06:13:20.783Z,92184.00
2024-04-23T06:14:20.751Z,92183.00
2024-04-23T06:15:20.782Z,92183.00
2024-04-23T06:16:20.843Z,92183.00
2024-04-23T06:17:28.689Z,92183.00
2024-04-23T06:18:21.966Z,92186.00
2024-04-23T06:19:20.895Z,92185.00
2024-04-23T06:20:20.894Z,92187.00
2024-04-23T06:21:20.963Z,92186.00
2024-04-23T06:22:20.908Z,92188.00
2024-04-23T06:23:21.174Z,92185.00
2024-04-23T06:24:20.928Z,92188.00
2024-04-23T06:25:21.585Z,92183.00
2024-04-23T06:26:20.890Z,92187.00
2024-04-23T06:27:21.665Z,92187.00
2024-04-23T06:28:20.894Z,92187.00
2024-04-23T06:29:20.895Z,92187.00
2024-04-23T06:30:20.964Z,92187.00
2024-04-23T06:31:21.576Z,92186.00
2024-04-23T06:32:23.152Z,92186.00
2024-04-23T06:33:21.022Z,92186.00
2024-04-23T06:34:21.656Z,92187.00
2024-04-23T06:35:20.989Z,92185.00
2024-04-23T06:36:21.003Z,92188.00
2024-04-23T06:37:21.528Z,92189.00
2024-04-23T06:38:21.036Z,92189.00
2024-04-23T06:39:21.135Z,92189.00
2024-04-23T06:40:21.161Z,92190.00
2024-04-23T06:41:21.313Z,92191.00
2024-04-23T06:42:21.270Z,92190.00
2024-04-23T06:43:21.317Z,92188.00
2024-04-23T06:44:21.341Z,92187.00
2024-04-23T06:45:21.361Z,92184.00
2024-04-23T06:46:21.372Z,92187.00
2024-04-23T06:47:21.550Z,92185.00
2024-04-23T06:48:21.490Z,92186.00
2024-04-23T06:49:21.442Z,92186.00
2024-04-23T06:50:21.473Z,92187.00
2024-04-23T06:51:21.495Z,92185.00
2024-04-23T06:52:22.173Z,92186.00
2024-04-23T06:53:21.526Z,92186.00
2024-04-23T06:54:21.603Z,92186.00
2024-04-23T06:55:21.526Z,92186.00
2024-04-23T06:56:21.558Z,92185.00
2024-04-23T06:57:21.553Z,92185.00
2024-04-23T06:58:24.318Z,92185.00
2024-04-23T06:59:21.563Z,92187.00
2024-04-23T07:00:21.549Z,92186.00
2024-04-23T07:01:21.677Z,92187.00
2024-04-23T07:02:21.687Z,92186.00
2024-04-23T07:03:21.602Z,92184.00
2024-04-23T07:04:21.558Z,92182.00
2024-04-23T07:05:21.560Z,92180.00
2024-04-23T07:06:21.569Z,92179.00
2024-04-23T07:07:21.565Z,92177.00
2024-04-23T07:08:21.650Z,92176.00
2024-04-23T07:09:21.574Z,92175.00
2024-04-23T07:10:22.185Z,92173.00
2024-04-23T07:11:21.695Z,92174.00
2024-04-23T07:12:21.571Z,92173.00
2024-04-23T07:13:21.606Z,92171.00
2024-04-23T07:14:21.569Z,92172.00
2024-04-23T07:15:22.551Z,92171.00
2024-04-23T07:16:21.568Z,92171.00
2024-04-23T07:17:21.632Z,92174.00
2024-04-23T07:18:21.663Z,92171.00
2024-04-23T07:19:21.572Z,92171.00
2024-04-23T07:20:21.651Z,92170.00
2024-04-23T07:21:21.573Z,92169.00
2024-04-23T07:22:21.628Z,92167.00
2024-04-23T07:23:21.578Z,92164.00
2024-04-23T07:24:21.606Z,92163.00
2024-04-23T07:25:24.666Z,92161.00
2024-04-23T07:26:21.598Z,92160.00
2024-04-23T07:27:22.191Z,92160.00
2024-04-23T07:28:21.583Z,92158.00
2024-04-23T07:29:21.591Z,92157.00
2024-04-23T07:30:21.572Z,92156.00
2024-04-23T07:31:21.600Z,92155.00
2024-04-23T07:32:21.624Z,92156.00
2024-04-23T07:33:21.742Z,92156.00
2024-04-23T07:34:21.582Z,92155.00
2024-04-23T07:35:21.718Z,92152.00
2024-04-23T07:36:21.583Z,92151.00
2024-04-23T07:37:21.586Z,92150.00
2024-04-23T07:38:21.590Z,92151.00
2024-04-23T07:39:21.653Z,92150.00
2024-04-23T07:40:22.186Z,92147.00
2024-04-23T07:41:21.604Z,92149.00
2024-04-23T07:42:21.605Z,92148.00
2024-04-23T07:43:23.349Z,92147.00
2024-04-23T07:44:21.620Z,92148.00
2024-04-23T07:45:21.600Z,92143.00
2024-04-23T07:46:21.634Z,92142.00
2024-04-23T07:47:21.691Z,92144.00
2024-04-23T07:48:21.701Z,92140.00
2024-04-23T07:49:21.591Z,92137.00
2024-04-23T07:50:21.665Z,92136.00
2024-04-23T07:51:21.598Z,92137.00
2024-04-23T07:52:21.593Z,92138.00
2024-04-23T07:53:21.693Z,92139.00
2024-04-23T07:54:21.628Z,92139.00
2024-04-23T07:55:21.604Z,92140.00
2024-04-23T07:56:21.620Z,92140.00
2024-04-23T07:57:21.600Z,92143.00
2024-04-23T07:58:21.597Z,92141.00
2024-04-23T07:59:21.689Z,92142.00
2024-04-23T08:00:21.604Z,92144.00
2024-04-23T08:01:21.619Z,92142.00
2024-04-23T08:02:22.796Z,92143.00
2024-04-23T08:03:21.708Z,92144.00
2024-04-23T08:04:21.707Z,92141.00
2024-04-23T08:05:21.611Z,92140.00
2024-04-23T08:06:21.621Z,92140.00
2024-04-23T08:07:21.614Z,92139.00
2024-04-23T08:08:21.606Z,92135.00
2024-04-23T08:09:21.614Z,92134.00
2024-04-23T08:10:21.685Z,92133.00
2024-04-23T08:11:21.698Z,92130.00
2024-04-23T08:12:21.622Z,92128.00
2024-04-23T08:13:21.617Z,92126.00
2024-04-23T08:14:21.627Z,92126.00
2024-04-23T08:15:21.690Z,92126.00
2024-04-23T08:16:21.637Z,92124.00
2024-04-23T08:17:21.750Z,92123.00
2024-04-23T08:18:21.730Z,92122.00
2024-04-23T08:19:21.627Z,92120.00
2024-04-23T08:20:22.201Z,92119.00
2024-04-23T08:21:21.638Z,92115.00
2024-04-23T08:22:21.694Z,92113.00
2024-04-23T08:23:21.718Z,92114.00
2024-04-23T08:24:21.671Z,92118.00
2024-04-23T08:25:21.658Z,92114.00
2024-04-23T08:26:21.703Z,92117.00
2024-04-23T08:27:21.735Z,92116.00
2024-04-23T08:28:21.795Z,92120.00
2024-04-23T08:29:21.923Z,92118.00
2024-04-23T08:30:21.912Z,92120.00
2024-04-23T08:31:21.980Z,92118.00
2024-04-23T08:32:22.119Z,92120.00
2024-04-23T08:33:22.086Z,92118.00
2024-04-23T08:34:22.088Z,92117.00
2024-04-23T08:35:22.171Z,92118.00
2024-04-23T08:36:22.098Z,92118.00
2024-04-23T08:37:22.118Z,92120.00
2024-04-23T08:38:22.140Z,92121.00
2024-04-23T08:39:22.185Z,92120.00
2024-04-23T08:40:22.281Z,92123.00
2024-04-23T08:41:22.182Z,92122.00
2024-04-23T08:42:22.227Z,92118.00
2024-04-23T08:43:22.287Z,92115.00
2024-04-23T08:44:22.419Z,92118.00
2024-04-23T08:45:22.423Z,92116.00
2024-04-23T08:46:22.519Z,92119.00
2024-04-23T08:47:22.750Z,92120.00
2024-04-23T08:48:22.696Z,92119.00
2024-04-23T08:49:22.708Z,92118.00
2024-04-23T08:50:22.887Z,92116.00
2024-04-23T08:51:22.905Z,92113.00
2024-04-23T08:52:23.828Z,92115.00
2024-04-23T08:53:22.827Z,92114.00
2024-04-23T08:54:22.857Z,92118.00
2024-04-23T08:55:22.833Z,92116.00
2024-04-23T08:56:22.827Z,92116.00
2024-04-23T08:57:22.827Z,92113.00
2024-04-23T08:58:22.862Z,92114.00
2024-04-23T08:59:22.890Z,92115.00
2024-04-23T09:00:23.727Z,92115.00
2024-04-23T09:01:22.877Z,92112.00
2024-04-23T09:02:22.902Z,92114.00
2024-04-23T09:03:22.850Z,92113.00
2024-04-23T09:04:22.925Z,92111.00
2024-04-23T09:05:24.169Z,92112.00
2024-04-23T09:06:23.047Z,92109.00
2024-04-23T09:07:28.075Z,92109.00
2024-04-23T09:08:24.094Z,92110.00
2024-04-23T09:09:23.177Z,92111.00
2024-04-23T09:10:23.108Z,92109.00
2024-04-23T09:11:23.185Z,92111.00
2024-04-23T09:12:23.113Z,92112.00
2024-04-23T09:13:23.109Z,92111.00
2024-04-23T09:14:23.120Z,92109.00
2024-04-23T09:15:23.155Z,92105.00
2024-04-23T09:16:23.114Z,92108.00
2024-04-23T09:17:23.232Z,92105.00
2024-04-23T09:18:23.200Z,92107.00
2024-04-23T09:19:23.217Z,92105.00
2024-04-23T09:20:23.379Z,92105.00
2024-04-23T09:21:24.237Z,92103.00
2024-04-23T09:22:23.368Z,92102.00
2024-04-23T09:23:23.414Z,92102.00
2024-04-23T09:24:23.464Z,92102.00
2024-04-23T09:25:24.331Z,92101.00
2024-04-23T09:26:23.571Z,92100.00
2024-04-23T09:27:23.558Z,92098.00
2024-04-23T09:28:24.568Z,92098.00
2024-04-23T09:29:23.697Z,92100.00
2024-04-23T09:30:26.225Z,92095.00
2024-04-23T09:31:23.904Z,92097.00
2024-04-23T09:32:23.978Z,92098.00
2024-04-23T09:33:24.788Z,92097.00
2024-04-23T09:34:24.442Z,92099.00
2024-04-23T09:35:24.104Z,92098.00
2024-04-23T09:36:24.091Z,92096.00
2024-04-23T09:37:24.112Z,92096.00
2024-04-23T09:38:24.111Z,92098.00
2024-04-23T09:39:24.154Z,92100.00
2024-04-23T09:40:24.179Z,92098.00
2024-04-23T09:41:24.217Z,92098.00
2024-04-23T09:42:24.267Z,92095.00
2024-04-23T09:43:24.291Z,92095.00
2024-04-23T09:44:24.318Z,92095.00
2024-04-23T09:45:24.429Z,92097.00
2024-04-23T09:46:24.439Z,92095.00
2024-04-23T09:47:24.982Z,92093.00
2024-04-23T09:48:24.613Z,92092.00
2024-04-23T09:49:24.507Z,92091.00
2024-04-23T09:50:24.510Z,92089.00
2024-04-23T09:51:24.552Z,92089.00
2024-04-23T09:52:27.042Z,92088.00
2024-04-23T09:53:25.594Z,92089.00
2024-04-23T09:54:24.584Z,92085.00
2024-04-23T09:55:24.579Z,92088.00
2024-04-23T09:56:24.658Z,92090.00
2024-04-23T09:57:24.590Z,92085.00
2024-04-23T09:58:28.108Z,92084.00
2024-04-23T09:59:24.588Z,92086.00
2024-04-23T10:00:24.589Z,92086.00
2024-04-23T10:01:24.607Z,92085.00
2024-04-23T10:02:24.665Z,92085.00
2024-04-23T10:03:24.693Z,92082.00
2024-04-23T10:04:26.967Z,92080.00
2024-04-23T10:05:24.868Z,92079.00
2024-04-23T10:06:24.952Z,92079.00
2024-04-23T10:07:24.870Z,92078.00
2024-04-23T10:08:24.924Z,92076.00
2024-04-23T10:09:24.966Z,92074.00
2024-04-23T10:10:25.016Z,92071.00
2024-04-23T10:11:25.116Z,92071.00
2024-04-23T10:12:25.706Z,92072.00
2024-04-23T10:13:25.135Z,92068.00
2024-04-23T10:14:25.245Z,92066.00
2024-04-23T10:15:25.206Z,92066.00
2024-04-23T10:16:25.219Z,92066.00
2024-04-23T10:17:25.374Z,92064.00
2024-04-23T10:18:25.344Z,92064.00
2024-04-23T10:19:25.251Z,92062.00
2024-04-23T10:20:25.277Z,92064.00
2024-04-23T10:21:25.338Z,92064.00
2024-04-23T10:22:25.386Z,92065.00
2024-04-23T10:23:25.300Z,92067.00
2024-04-23T10:24:25.305Z,92069.00
2024-04-23T10:25:25.321Z,92070.00
2024-04-23T10:26:25.375Z,92068.00
2024-04-23T10:27:25.374Z,92072.00
2024-04-23T10:28:25.410Z,92072.00
2024-04-23T10:29:25.457Z,92069.00
2024-04-23T10:30:25.486Z,92070.00
2024-04-23T10:31:25.499Z,92070.00
2024-04-23T10:32:25.629Z,92071.00
2024-04-23T10:33:25.689Z,92070.00
2024-04-23T10:34:25.581Z,92068.00
2024-04-23T10:35:25.583Z,92071.00
2024-04-23T10:36:25.598Z,92069.00
2024-04-23T10:37:25.692Z,92067.00
2024-04-23T10:38:25.806Z,92069.00
2024-04-23T10:39:25.912Z,92066.00
2024-04-23T10:40:25.904Z,92070.00
2024-04-23T10:41:25.950Z,92069.00
2024-04-23T10:42:25.968Z,92072.00
2024-04-23T10:43:26.009Z,92072.00
2024-04-23T10:44:26.057Z,92071.00
2024-04-23T10:45:26.098Z,92071.00
2024-04-23T10:46:26.103Z,92071.00
2024-04-23T10:47:26.202Z,92071.00
2024-04-23T10:48:26.284Z,92068.00
2024-04-23T10:49:26.131Z,92070.00
2024-04-23T10:50:26.176Z,92068.00
2024-04-23T10:51:26.249Z,92067.00
2024-04-23T10:52:26.164Z,92066.00
2024-04-23T10:53:26.204Z,92067.00
2024-04-23T10:54:26.272Z,92066.00
2024-04-23T10:55:26.251Z,92062.00
2024-04-23T10:56:26.255Z,92065.00
2024-04-23T10:57:26.312Z,92063.00
2024-04-23T10:58:26.361Z,92065.00
2024-04-23T10:59:29.870Z,92063.00
2024-04-23T11:00:26.510Z,92063.00
2024-04-23T11:01:26.515Z,92062.00
2024-04-23T11:02:26.650Z,92062.00
2024-04-23T11:03:26.585Z,92062.00
2024-04-23T11:04:26.571Z,92060.00
2024-04-23T11:05:26.519Z,92059.00
2024-04-23T11:06:26.408Z,92059.00
2024-04-23T11:07:27.255Z,92059.00
2024-04-23T11:08:26.446Z,92055.00
2024-04-23T11:09:26.417Z,92052.00
2024-04-23T11:10:26.439Z,92048.00
2024-04-23T11:11:26.680Z,92046.00
2024-04-23T11:12:26.410Z,92044.00
2024-04-23T11:13:26.405Z,92041.00
2024-04-23T11:14:26.400Z,92041.00
2024-04-23T11:15:26.403Z,92039.00
2024-04-23T11:16:26.461Z,92037.00
2024-04-23T11:17:26.557Z,92034.00
2024-04-23T11:18:26.595Z,92029.00
2024-04-23T11:19:26.406Z,92029.00
2024-04-23T11:20:26.402Z,92026.00
2024-04-23T11:21:26.421Z,92024.00
2024-04-23T11:22:26.414Z,92023.00
2024-04-23T11:23:26.407Z,92022.00
2024-04-23T11:24:26.473Z,92023.00
2024-04-23T11:25:26.422Z,92025.00
2024-04-23T11:26:26.422Z,92022.00
2024-04-23T11:27:26.427Z,92020.00
2024-04-23T11:28:26.485Z,92020.00
2024-04-23T11:29:26.554Z,92016.00
2024-04-23T11:30:26.671Z,92015.00
2024-04-23T11:31:26.679Z,92012.00
2024-04-23T11:32:26.802Z,92014.00
2024-04-23T11:33:26.875Z,92013.00
2024-04-23T11:34:26.877Z,92014.00
2024-04-23T11:35:27.042Z,92012.00
2024-04-23T11:36:27.156Z,92010.00
2024-04-23T11:37:27.124Z,92015.00
2024-04-23T11:38:27.139Z,92013.00
2024-04-23T11:39:27.194Z,92013.00
2024-04-23T11:40:27.251Z,92014.00
2024-04-23T11:41:27.788Z,92013.00
2024-04-23T11:42:27.387Z,92010.00
2024-04-23T11:43:27.460Z,92008.00
2024-04-23T11:44:27.519Z,92009.00
2024-04-23T11:45:27.566Z,92007.00